Snow/Ice From: 17-12-2017 10:00 Until: 18-12-2017 06:00 warning for: Snow/Ice Level: Yellow info button

Although rather usual in this region, locally or potentially dangerous phenomena are expected. (such as local winds, summer thunderstorms, rising streams or high waves) Be aware and pay attention to the latest weather updates, especially if you carry out activities exposed to weather or close to a stream or shoreline. 


Meteo18 Weather Cam more information Meteo18 Weather Cam


Thunder radar more information blitzortung!


warning for Snow/Ice more information rain snow radar


Visit our other weather sites:

Template documentation
and downloads

And another site



Weather Underground History page Text

Daily Summary for April 14, 2017 Units:  English    Metric   Both
« Previous Day
Next Day »
Daily Weekly Monthly Yearly Custom
  High: Low: Average:
Temperature: 64.9 °F 46.4 °F 55 °F
Dew Point: 49.1 °F 41.9 °F 44.8 °F
Humidity: 88 % 48 % 70 %
Wind Speed: 5 mph 0 mph 1.2 mph
Wind Gust: 11 mph - -
Wind:- - West
Pressure: 30.1 in 30 in -
Precipitation: 0 in    
Historical Graphs
 
 
Tabular Data for April 14, 2017
Time Temperature Dew Point Pressure Wind Wind Speed Wind Gust Humidity Rainfall Rate (Hourly)
00:02 48.7 °F 42.4 °F 30.1 in Calm   1 mph 79 % 0 in
00:12 48.4 °F 42.3 °F 30.1 in Calm   1 mph 79 % 0 in
00:17 48.4 °F 42.3 °F 30.1 in Calm   1 mph 79 % 0 in
00:22 48 °F 42.1 °F 30.1 in Calm   1 mph 80 % 0 in
00:32 48 °F 42.1 °F 30.1 in Calm   1 mph 80 % 0 in
00:42 47.8 °F 41.9 °F 30.1 in Calm   1 mph 80 % 0 in
00:52 47.5 °F 41.9 °F 30.1 in Calm   2 mph 81 % 0 in
00:57 47.5 °F 41.9 °F 30.1 in Calm   1 mph 81 % 0 in
01:02 47.7 °F 42.1 °F 30.1 in Calm     81 % 0 in
01:07 48 °F 42.1 °F 30.1 in Calm   1 mph 80 % 0 in
01:12 48.6 °F 42.6 °F 30.1 in NNW 1 mph 1 mph 80 % 0 in
01:17 48.7 °F 42.4 °F 30.1 in Calm   1 mph 79 % 0 in
01:22 48.9 °F 42.6 °F 30.1 in NNW 1 mph 1 mph 79 % 0 in
01:27 49.3 °F 43 °F 30.1 in Calm   1 mph 79 % 0 in
01:32 49.1 °F 42.8 °F 30.1 in Calm   1 mph 79 % 0 in
01:42 49.5 °F 43.2 °F 30.1 in Calm   1 mph 79 % 0 in
01:47 49.3 °F 43.3 °F 30.1 in Calm   1 mph 80 % 0 in
01:52 48.9 °F 43.3 °F 30.1 in Calm   1 mph 81 % 0 in
01:57 48.9 °F 43.7 °F 30.1 in Calm   1 mph 82 % 0 in
02:02 48.9 °F 43.7 °F 30.1 in Calm   1 mph 82 % 0 in
02:07 48.9 °F 43.3 °F 30.1 in Calm   1 mph 81 % 0 in
02:12 49.3 °F 44.1 °F 30.1 in Calm   1 mph 82 % 0 in
02:17 48.9 °F 44.1 °F 30.1 in Calm     83 % 0 in
02:22 48.7 °F 43.5 °F 30.1 in Calm     82 % 0 in
02:32 49.3 °F 44.4 °F 30.1 in Calm     83 % 0 in
02:37 49.3 °F 44.4 °F 30.1 in Calm     83 % 0 in
02:42 49.1 °F 44.2 °F 30.1 in NW 1 mph 1 mph 83 % 0 in
02:47 49.3 °F 43.7 °F 30.1 in Calm   1 mph 81 % 0 in
02:52 49.6 °F 43.7 °F 30.1 in Calm   1 mph 80 % 0 in
03:02 49.5 °F 43.5 °F 30.1 in Calm   2 mph 80 % 0 in
03:07 50 °F 43.3 °F 30.1 in Calm   2 mph 78 % 0 in
03:12 50.4 °F 43.3 °F 30.1 in Calm   2 mph 77 % 0 in
03:17 50.4 °F 43.3 °F 30.1 in North 1 mph 2 mph 77 % 0 in
03:22 50 °F 43.3 °F 30.1 in Calm   2 mph 78 % 0 in
03:32 49.5 °F 43.2 °F 30.1 in Calm   1 mph 79 % 0 in
03:37 49.5 °F 43.2 °F 30.1 in Calm   1 mph 79 % 0 in
03:42 49.5 °F 43.5 °F 30.1 in Calm   1 mph 80 % 0 in
03:52 48.7 °F 43.2 °F 30.1 in Calm   1 mph 81 % 0 in
04:02 48 °F 43.2 °F 30.1 in Calm   1 mph 83 % 0 in
04:07 47.8 °F 43.2 °F 30.1 in Calm   1 mph 84 % 0 in
04:12 47.7 °F 43 °F 30.1 in Calm   1 mph 84 % 0 in
04:17 47.7 °F 43 °F 30.1 in Calm   1 mph 84 % 0 in
04:22 47.7 °F 43 °F 30.1 in Calm   1 mph 84 % 0 in
04:32 47.7 °F 43.3 °F 30.1 in Calm     85 % 0 in
04:42 47.7 °F 43 °F 30.1 in Calm     84 % 0 in
04:52 47.7 °F 43 °F 30.1 in Calm     84 % 0 in
04:57 47.5 °F 42.8 °F 30.1 in Calm     84 % 0 in
05:02 47.5 °F 43.2 °F 30.1 in Calm     85 % 0 in
05:17 47.3 °F 43 °F 30.1 in Calm     85 % 0 in
05:22 47.5 °F 42.8 °F 30.1 in Calm     84 % 0 in
05:27 47.7 °F 43 °F 30.1 in Calm     84 % 0 in
05:32 47.5 °F 42.8 °F 30.1 in Calm     84 % 0 in
05:42 47.1 °F 42.8 °F 30.1 in Calm     85 % 0 in
05:47 47.1 °F 43.2 °F 30.1 in Calm     86 % 0 in
05:52 47.3 °F 43 °F 30.1 in Calm     85 % 0 in
05:57 47.3 °F 43 °F 30.1 in Calm     85 % 0 in
06:02 47.3 °F 43 °F 30.1 in Calm     85 % 0 in
06:12 47.5 °F 42.8 °F 30.1 in Calm     84 % 0 in
06:17 47.1 °F 42.6 °F 30.1 in Calm     84 % 0 in
06:22 46.9 °F 42.6 °F 30.1 in Calm     85 % 0 in
06:27 46.8 °F 42.4 °F 30.1 in Calm     85 % 0 in
06:32 46.8 °F 42.8 °F 30.1 in Calm     86 % 0 in
06:37 46.8 °F 42.8 °F 30.1 in Calm     86 % 0 in
06:42 46.6 °F 43 °F 30.1 in Calm     87 % 0 in
06:47 46.4 °F 42.8 °F 30.1 in Calm     87 % 0 in
06:52 46.6 °F 43 °F 30.1 in Calm     87 % 0 in
06:57 46.6 °F 43.2 °F 30.1 in Calm     88 % 0 in
07:02 46.8 °F 43.2 °F 30.1 in Calm     87 % 0 in
07:07 46.9 °F 43.3 °F 30.1 in Calm     87 % 0 in
07:12 46.9 °F 43.3 °F 30.1 in Calm     87 % 0 in
07:17 46.9 °F 43.3 °F 30.1 in Calm     87 % 0 in
07:22 47.1 °F 43.2 °F 30.1 in Calm     86 % 0 in
07:27 47.3 °F 43.3 °F 30.1 in Calm     86 % 0 in
07:32 47.5 °F 43.5 °F 30.1 in Calm     86 % 0 in
07:37 47.5 °F 43.9 °F 30.1 in Calm     87 % 0 in
07:42 47.5 °F 43.9 °F 30.1 in Calm     87 % 0 in
07:52 47.5 °F 43.9 °F 30.1 in Calm     87 % 0 in
07:57 47.5 °F 43.9 °F 30.1 in Calm     87 % 0 in
08:02 47.7 °F 44.1 °F 30.1 in Calm     87 % 0 in
08:07 47.8 °F 44.2 °F 30.1 in Calm     87 % 0 in
08:12 47.8 °F 44.2 °F 30.1 in Calm     87 % 0 in
08:22 48.4 °F 44.8 °F 30.1 in Calm     87 % 0 in
08:27 48.6 °F 44.8 °F 30.1 in Calm     87 % 0 in
08:32 48.7 °F 44.4 °F 30.1 in Calm     85 % 0 in
08:37 49.1 °F 44.8 °F 30.1 in Calm     85 % 0 in
08:42 49.3 °F 44.6 °F 30.1 in Calm     84 % 0 in
08:52 49.5 °F 44.6 °F 30.1 in Calm     83 % 0 in
09:02 50 °F 45 °F 30.1 in Calm     83 % 0 in
09:12 50.5 °F 45.9 °F 30.1 in Calm     84 % 0 in
09:17 50.7 °F 45.7 °F 30.1 in Calm     83 % 0 in
09:22 50.9 °F 45.7 °F 30.1 in Calm     82 % 0 in
09:32 51.6 °F 46 °F 30.1 in Calm     81 % 0 in
09:37 51.8 °F 45.5 °F 30.1 in Calm     79 % 0 in
09:42 52 °F 45.7 °F 30.1 in SW 2 mph 3 mph 79 % 0 in
09:52 52.3 °F 45.7 °F 30.1 in SW 1 mph 3 mph 78 % 0 in
09:57 52.7 °F 46 °F 30.1 in Calm   2 mph 78 % 0 in
10:02 53.2 °F 46.2 °F 30.1 in Calm   2 mph 77 % 0 in
10:07 53.4 °F 45.3 °F 30.1 in South 2 mph 2 mph 74 % 0 in
10:12 53.4 °F 45 °F 30.1 in SW 3 mph 3 mph 73 % 0 in
10:17 53.6 °F 44.8 °F 30.1 in SW 3 mph 4 mph 72 % 0 in
10:22 53.6 °F 45.1 °F 30.1 in SSW 1 mph 4 mph 73 % 0 in
10:27 53.6 °F 44.8 °F 30.1 in SW 3 mph 4 mph 72 % 0 in
10:32 54 °F 45.5 °F 30.1 in WSW 1 mph 5 mph 73 % 0 in
10:37 54 °F 45.5 °F 30.1 in WSW 3 mph 5 mph 73 % 0 in
10:42 54.1 °F 45.7 °F 30.1 in WSW 3 mph 5 mph 73 % 0 in
10:47 54.9 °F 46.4 °F 30.1 in Calm   4 mph 73 % 0 in
10:52 55.2 °F 46 °F 30.1 in SW 2 mph 4 mph 71 % 0 in
10:57 55.6 °F 45.5 °F 30.1 in WSW 2 mph 4 mph 69 % 0 in
11:02 55.8 °F 46 °F 30.1 in Calm   4 mph 70 % 0 in
11:07 56.1 °F 46 °F 30.1 in SSE 1 mph 4 mph 69 % 0 in
11:12 56.3 °F 45.9 °F 30.1 in Calm   4 mph 68 % 0 in
11:17 56.7 °F 46.6 °F 30.1 in Calm   4 mph 69 % 0 in
11:22 57.4 °F 46.9 °F 30.1 in ESE 2 mph 4 mph 68 % 0 in
11:27 57.7 °F 46.9 °F 30.1 in SW 2 mph 4 mph 67 % 0 in
11:32 58.1 °F 46.4 °F 30.1 in SSW 2 mph 5 mph 65 % 0 in
11:37 58.3 °F 47.3 °F 30.1 in South 3 mph 6 mph 67 % 0 in
11:42 58.5 °F 46.8 °F 30.1 in WSW 1 mph 6 mph 65 % 0 in
11:52 59.4 °F 48 °F 30.1 in WNW 1 mph 4 mph 66 % 0 in
11:57 59.4 °F 47.1 °F 30.1 in West 1 mph 4 mph 64 % 0 in
12:02 59.9 °F 47.7 °F 30.1 in Calm   4 mph 64 % 0 in
12:07 60.6 °F 48 °F 30.1 in SW 1 mph 4 mph 63 % 0 in
12:17 60.6 °F 47.5 °F 30.1 in Calm   3 mph 62 % 0 in
12:22 60.8 °F 48.2 °F 30.1 in NW 1 mph 3 mph 63 % 0 in
12:27 61 °F 47.5 °F 30.1 in Calm   3 mph 61 % 0 in
12:32 61.2 °F 46.8 °F 30.1 in West 2 mph 4 mph 59 % 0 in
12:42 61.3 °F 46.9 °F 30.1 in NE 1 mph 3 mph 59 % 0 in
12:52 62.2 °F 49.1 °F 30.1 in Calm   3 mph 62 % 0 in
12:57 62.2 °F 47.7 °F 30.1 in NE 1 mph 3 mph 59 % 0 in
13:02 61.3 °F 46.9 °F 30.1 in Calm   6 mph 59 % 0 in
13:07 61.7 °F 47.3 °F 30.1 in North 1 mph 6 mph 59 % 0 in
13:12 61.5 °F 47.1 °F 30.1 in NE 2 mph 6 mph 59 % 0 in
13:17 61.2 °F 47.1 °F 30.1 in Calm   4 mph 60 % 0 in
13:22 61.3 °F 46.9 °F 30.1 in Calm   4 mph 59 % 0 in
13:27 61.5 °F 47.1 °F 30.1 in NNW 3 mph 4 mph 59 % 0 in
13:32 61.2 °F 47.1 °F 30.1 in NNW 3 mph 6 mph 60 % 0 in
13:37 60.6 °F 46.2 °F 30.1 in NNE 5 mph 7 mph 59 % 0 in
13:42 60.4 °F 46.4 °F 30.1 in Calm   7 mph 60 % 0 in
13:47 60.6 °F 46.2 °F 30.1 in WNW 1 mph 7 mph 59 % 0 in
13:52 61 °F 45.7 °F 30.1 in NE 3 mph 6 mph 57 % 0 in
13:57 61 °F 45.7 °F 30.1 in Calm   5 mph 57 % 0 in
14:02 61.3 °F 46.9 °F 30.1 in SE 1 mph 5 mph 59 % 0 in
14:12 63 °F 48 °F 30.1 in ENE 1 mph 5 mph 58 % 0 in
14:17 63.3 °F 46.9 °F 30.1 in NE 3 mph 5 mph 55 % 0 in
14:22 63.3 °F 46.4 °F 30.1 in Calm   5 mph 54 % 0 in
14:32 63.9 °F 44.8 °F 30.1 in WNW 2 mph 8 mph 50 % 0 in
14:37 64.2 °F 45.1 °F 30.1 in Calm   8 mph 50 % 0 in
14:42 64.9 °F 44.8 °F 30.1 in WSW 4 mph 8 mph 48 % 0 in
14:57 63.9 °F 45.3 °F 30.1 in NW 4 mph 7 mph 51 % 0 in
15:02 63.1 °F 44.8 °F 30.1 in Calm   8 mph 51 % 0 in
15:07 63.1 °F 45.1 °F 30.1 in WNW 2 mph 8 mph 52 % 0 in
15:12 63.1 °F 44.8 °F 30.1 in NW 3 mph 8 mph 51 % 0 in
15:17 63 °F 45.1 °F 30.1 in WNW 4 mph 9 mph 52 % 0 in
15:22 63.1 °F 44.8 °F 30.1 in WSW 3 mph 9 mph 51 % 0 in
15:32 63.3 °F 46.4 °F 30.1 in WNW 4 mph 6 mph 54 % 0 in
15:37 63.3 °F 45 °F 30.1 in West 3 mph 6 mph 51 % 0 in
15:42 63.1 °F 44.8 °F 30.1 in WNW 5 mph 6 mph 51 % 0 in
15:52 63 °F 46.6 °F 30.1 in WNW 3 mph 7 mph 55 % 0 in
15:57 63 °F 45.1 °F 30.1 in WNW 1 mph 7 mph 52 % 0 in
16:02 63 °F 45.5 °F 30.1 in WNW 2 mph 6 mph 53 % 0 in
16:07 63 °F 44.6 °F 30.1 in WSW 5 mph 6 mph 51 % 0 in
16:17 63.1 °F 45.7 °F 30.1 in WNW 3 mph 8 mph 53 % 0 in
16:22 63.3 °F 45.9 °F 30.1 in WNW 5 mph 8 mph 53 % 0 in
16:32 63 °F 45.5 °F 30.1 in Calm   7 mph 53 % 0 in
16:37 63.1 °F 45.7 °F 30.1 in NNE 1 mph 6 mph 53 % 0 in
16:42 63.3 °F 46.4 °F 30.1 in NW 2 mph 7 mph 54 % 0 in
16:52 63.3 °F 45.3 °F 30.1 in West 4 mph 7 mph 52 % 0 in
16:57 63.3 °F 45.9 °F 30.1 in WNW 3 mph 7 mph 53 % 0 in
17:02 63.3 °F 45.9 °F 30.1 in WNW 3 mph 6 mph 53 % 0 in
17:07 63.1 °F 45.1 °F 30.1 in West 5 mph 7 mph 52 % 0 in
17:12 63 °F 45.1 °F 30.1 in West 3 mph 7 mph 52 % 0 in
17:17 63.1 °F 45.7 °F 30.1 in West 2 mph 7 mph 53 % 0 in
17:22 63.1 °F 45.1 °F 30.1 in WSW 1 mph 7 mph 52 % 0 in
17:32 63.1 °F 46.2 °F 30.1 in West 3 mph 7 mph 54 % 0 in
17:37 63 °F 45.5 °F 30.1 in West 1 mph 7 mph 53 % 0 in
17:42 63.3 °F 46.4 °F 30.1 in NNW 2 mph 6 mph 54 % 0 in
17:47 63.3 °F 46.4 °F 30.1 in WNW 3 mph 4 mph 54 % 0 in
17:52 63.7 °F 46.2 °F 30 in Calm   4 mph 53 % 0 in
17:57 64.2 °F 45.7 °F 30 in West 4 mph 4 mph 51 % 0 in
18:02 64.4 °F 45.9 °F 30 in WNW 2 mph 11 mph 51 % 0 in
18:07 64.6 °F 46 °F 30 in West 5 mph 11 mph 51 % 0 in
18:12 64.2 °F 46.2 °F 30 in WNW 3 mph 10 mph 52 % 0 in
18:17 63.7 °F 45.1 °F 30 in WNW 3 mph 10 mph 51 % 0 in
18:22 63.3 °F 45.9 °F 30 in West 3 mph 10 mph 53 % 0 in
18:32 63 °F 46 °F 30 in WNW 3 mph 7 mph 54 % 0 in
18:42 63 °F 46.6 °F 30 in NW 1 mph 6 mph 55 % 0 in
18:52 63.3 °F 45.9 °F 30 in SW 1 mph 5 mph 53 % 0 in
18:57 63.1 °F 45.7 °F 30 in WNW 4 mph 4 mph 53 % 0 in
19:02 63 °F 46 °F 30 in WNW 5 mph 8 mph 54 % 0 in
19:07 62.8 °F 45.9 °F 30.1 in West 3 mph 8 mph 54 % 0 in
19:12 62.6 °F 46.2 °F 30.1 in West 3 mph 8 mph 55 % 0 in
19:17 62.4 °F 46 °F 30.1 in West 4 mph 6 mph 55 % 0 in
19:22 62.4 °F 46 °F 30 in West 5 mph 6 mph 55 % 0 in
19:27 62.2 °F 46.4 °F 30 in WSW 3 mph 8 mph 56 % 0 in
19:32 62.1 °F 46.2 °F 30.1 in WNW 3 mph 8 mph 56 % 0 in
19:42 61.9 °F 46 °F 30.1 in West 3 mph 7 mph 56 % 0 in
19:52 61.3 °F 45.5 °F 30.1 in West 3 mph 7 mph 56 % 0 in
19:57 61.3 °F 46 °F 30.1 in WNW 4 mph 7 mph 57 % 0 in
20:02 61.2 °F 45.9 °F 30.1 in WNW 3 mph 8 mph 57 % 0 in
20:12 60.6 °F 45.7 °F 30.1 in WNW 3 mph 8 mph 58 % 0 in
20:17 60.4 °F 46 °F 30.1 in WNW 3 mph 7 mph 59 % 0 in
20:22 60.3 °F 45.9 °F 30.1 in West 1 mph 7 mph 59 % 0 in
20:32 59.7 °F 45.9 °F 30.1 in WNW 2 mph 6 mph 60 % 0 in
20:37 59.5 °F 46 °F 30.1 in West 1 mph 4 mph 61 % 0 in
20:42 59.2 °F 45.7 °F 30.1 in WSW 1 mph 4 mph 61 % 0 in
20:47 58.6 °F 45.7 °F 30.1 in Calm   4 mph 62 % 0 in
20:52 58.5 °F 45.9 °F 30.1 in Calm   4 mph 63 % 0 in
21:02 57.7 °F 45.7 °F 30.1 in West 1 mph 3 mph 64 % 0 in
21:07 57.6 °F 45.9 °F 30.1 in WSW 1 mph 3 mph 65 % 0 in
21:12 57.4 °F 45.7 °F 30.1 in Calm   3 mph 65 % 0 in
21:17 57.2 °F 45.5 °F 30.1 in WSW 1 mph 2 mph 65 % 0 in
21:22 57 °F 45.3 °F 30.1 in Calm   2 mph 65 % 0 in
21:32 56.5 °F 45.7 °F 30.1 in NNW 2 mph 4 mph 67 % 0 in
21:42 55.8 °F 45.3 °F 30.1 in NW 1 mph 4 mph 68 % 0 in
21:47 55.9 °F 45.1 °F 30.1 in NW 1 mph 3 mph 67 % 0 in
21:52 55.6 °F 45.1 °F 30.1 in WNW 1 mph 4 mph 68 % 0 in
22:02 55 °F 45.1 °F 30.1 in NW 2 mph 3 mph 69 % 0 in
22:12 54.9 °F 45 °F 30.1 in NW 3 mph 3 mph 69 % 0 in
22:17 54.9 °F 44.4 °F 30.1 in NNW 1 mph 3 mph 68 % 0 in
22:22 54.7 °F 44.8 °F 30.1 in NW 2 mph 3 mph 69 % 0 in
22:32 54.3 °F 44.4 °F 30.1 in NW 1 mph 3 mph 69 % 0 in
22:37 54.3 °F 44.4 °F 30.1 in NW 2 mph 3 mph 69 % 0 in
22:42 54.1 °F 44.2 °F 30.1 in NW 1 mph 3 mph 69 % 0 in
22:47 54 °F 44.4 °F 30.1 in NW 2 mph 3 mph 70 % 0 in
22:52 53.8 °F 44.2 °F 30.1 in WNW 3 mph 4 mph 70 % 0 in
22:57 53.4 °F 43.9 °F 30.1 in NNW 1 mph 4 mph 70 % 0 in
23:02 53.2 °F 44.1 °F 30.1 in NNW 1 mph 4 mph 71 % 0 in
23:12 52.5 °F 43.7 °F 30.1 in NW 2 mph 3 mph 72 % 0 in
23:17 52.3 °F 43.5 °F 30.1 in NW 2 mph 2 mph 72 % 0 in
23:22 52.3 °F 43.5 °F 30.1 in NW 3 mph 3 mph 72 % 0 in
23:27 52.2 °F 43.3 °F 30.1 in NW 1 mph 3 mph 72 % 0 in
23:32 52.2 °F 43 °F 30.1 in NW 3 mph 3 mph 71 % 0 in
23:37 52.2 °F 43 °F 30.1 in NW 2 mph 4 mph 71 % 0 in
23:42 52 °F 42.8 °F 30.1 in NW 1 mph 4 mph 71 % 0 in
23:47 52 °F 42.8 °F 30.1 in Calm   4 mph 71 % 0 in
23:52 51.6 °F 43 °F 30.1 in Calm   3 mph 72 % 0 in
Meteo18
Compliments of Weather Underground - 4 mb

Script developed by  Jim McMurry - jmcmurry@mwt.net Adapted for the template by  Wim van der Kuil - Leuven-Template.eu

You find our weather info also at:

European Weather Network

Weather Underground

Equipment we use:

Weather-station
Davis Vue

Weather-program
Meteohub

Weather-server
Raspberry PI 2 B+

Provider
1 and 1

Davis Vue

Meteohub

Raspberry PI 2 B+

1 and 1